Time;durP1;ratioP1;P1;durP2;ratioP2;P2;SDS_P1;SDS_P2;PMS_P1;PMS_P2;Temp;Humidity;BMP_temperature;BMP_pressure;BME280_temperature;BME280_humidity;BME280_pressure;Samples;Min_cycle;Max_cycle;Signal;HPM_P1;HPM_P2
2021/04/11 00:00:18;;;;;;;12.20;11.63;;;13.00;95.70;;;;;;5133658;27;20452;-68
2021/04/11 00:02:44;;;;;;;12.30;11.43;;;12.90;96.00;;;;;;5133478;27;20518;-68
2021/04/11 00:05:12;;;;;;;12.33;11.63;;;12.90;95.20;;;;;;5133249;27;20809;-67
2021/04/11 00:07:38;;;;;;;12.20;11.40;;;13.00;95.20;;;;;;5132922;27;20946;-67
2021/04/11 00:10:06;;;;;;;11.60;11.00;;;12.90;95.40;;;;;;5132524;27;20966;-68
2021/04/11 00:12:32;;;;;;;12.67;11.87;;;12.90;95.30;;;;;;5133680;27;20445;-68
2021/04/11 00:14:58;;;;;;;11.80;11.13;;;12.90;95.30;;;;;;5133335;27;20474;-67
2021/04/11 00:17:25;;;;;;;12.20;11.57;;;12.90;95.20;;;;;;5132948;27;20464;-68
2021/04/11 00:19:51;;;;;;;12.77;12.07;;;12.80;96.00;;;;;;5132610;27;20487;-68
2021/04/11 00:22:18;;;;;;;13.53;12.60;;;12.60;96.70;;;;;;5132919;27;20847;-67
2021/04/11 00:24:44;;;;;;;13.00;12.20;;;12.50;97.40;;;;;;5132863;27;20444;-67
2021/04/11 00:27:11;;;;;;;15.17;14.37;;;12.30;98.10;;;;;;5133067;27;20444;-67
2021/04/11 00:29:37;;;;;;;14.90;14.10;;;12.30;98.80;;;;;;5132636;27;20448;-67
2021/04/11 00:32:05;;;;;;;14.40;13.50;;;12.20;99.70;;;;;;5132683;27;20441;-67
2021/04/11 00:34:32;;;;;;;15.17;14.30;;;12.00;99.90;;;;;;5132673;27;20449;-67
2021/04/11 00:36:58;;;;;;;15.50;14.50;;;12.10;99.90;;;;;;5132982;27;20445;-67
2021/04/11 00:39:25;;;;;;;14.93;13.90;;;12.00;99.90;;;;;;5132470;27;20444;-68
2021/04/11 00:41:56;;;;;;;14.27;13.53;;;11.90;99.90;;;;;;5132455;27;20483;-68
2021/04/11 00:44:22;;;;;;;13.83;13.03;;;11.90;99.90;;;;;;5132488;27;20497;-68
2021/04/11 00:46:52;;;;;;;14.60;13.90;;;11.80;99.90;;;;;;5132256;27;20448;-67
2021/04/11 00:49:22;;;;;;;13.40;12.67;;;11.70;99.90;;;;;;5132509;27;20451;-68
2021/04/11 00:51:49;;;;;;;16.03;14.93;;;11.50;99.90;;;;;;5132549;27;20441;-67
2021/04/11 00:54:15;;;;;;;14.93;13.80;;;11.40;99.90;;;;;;5132455;27;20574;-68
2021/04/11 00:56:42;;;;;;;14.93;14.13;;;11.30;99.90;;;;;;5132441;27;20452;-68
2021/04/11 00:59:09;;;;;;;15.47;14.50;;;11.30;99.90;;;;;;5132518;27;20455;-67
2021/04/11 01:01:36;;;;;;;14.90;14.00;;;11.30;99.90;;;;;;5132301;27;20495;-67
2021/04/11 01:04:04;;;;;;;14.23;13.40;;;11.30;99.90;;;;;;5132158;27;20447;-67
2021/04/11 01:06:34;;;;;;;13.37;12.57;;;11.30;99.90;;;;;;5132277;27;20440;-67
2021/04/11 01:09:09;;;;;;;13.27;12.67;;;11.40;99.90;;;;;;5132531;28;20439;-67
2021/04/11 01:11:36;;;;;;;13.37;12.50;;;11.20;99.90;;;;;;5132376;27;20830;-67
2021/04/11 01:14:05;;;;;;;13.33;12.53;;;11.20;99.90;;;;;;5132012;27;20952;-68
2021/04/11 01:16:33;;;;;;;13.57;12.57;;;11.10;99.90;;;;;;5132101;27;20468;-68
2021/04/11 01:19:00;;;;;;;13.90;12.90;;;11.10;99.90;;;;;;5131982;27;20967;-67
2021/04/11 01:21:33;;;;;;;14.37;13.47;;;11.00;99.90;;;;;;5134351;27;20472;-67
2021/04/11 01:24:13;;;;;;;14.73;13.73;;;10.90;99.90;;;;;;5136316;27;20506;-68
2021/04/11 01:26:41;;;;;;;14.30;13.30;;;11.10;99.90;;;;;;5136234;27;20443;-67
2021/04/11 01:29:08;;;;;;;13.80;13.10;;;11.20;99.90;;;;;;5136531;27;20448;-68
2021/04/11 01:31:35;;;;;;;24.93;15.83;;;11.20;99.90;;;;;;5136267;27;20460;-68
2021/04/11 01:34:02;;;;;;;13.70;12.90;;;11.20;99.90;;;;;;5136126;27;20823;-68
2021/04/11 01:36:31;;;;;;;14.23;13.33;;;11.20;99.90;;;;;;5136175;27;20455;-68
2021/04/11 01:39:01;;;;;;;14.03;13.23;;;11.20;99.90;;;;;;5135717;27;20508;-68
2021/04/11 01:41:32;;;;;;;13.63;12.70;;;11.30;99.90;;;;;;5136220;27;20490;-67
2021/04/11 01:44:02;;;;;;;14.63;13.80;;;11.20;99.90;;;;;;5136188;27;20501;-67
2021/04/11 01:46:28;;;;;;;14.00;13.20;;;11.20;99.90;;;;;;5136028;27;20441;-68
2021/04/11 01:48:55;;;;;;;14.50;13.30;;;11.20;99.90;;;;;;5135818;27;20449;-67
2021/04/11 01:51:24;;;;;;;13.93;13.10;;;11.10;99.90;;;;;;5135688;27;20504;-67
2021/04/11 01:53:51;;;;;;;14.03;13.17;;;11.10;99.90;;;;;;5135710;27;20455;-67
2021/04/11 01:56:19;;;;;;;13.83;13.03;;;11.10;99.90;;;;;;5135824;27;20450;-67
2021/04/11 01:58:45;;;;;;;14.97;13.97;;;11.10;99.90;;;;;;5136006;27;20887;-67
2021/04/11 02:01:21;;;;;;;14.43;13.53;;;11.10;99.90;;;;;;5135508;27;20447;-67
2021/04/11 02:03:51;;;;;;;14.50;13.60;;;11.10;99.90;;;;;;5135527;27;20806;-67
2021/04/11 02:06:18;;;;;;;15.17;14.23;;;11.10;99.90;;;;;;5135582;27;20459;-67
2021/04/11 02:08:48;;;;;;;15.80;14.80;;;11.10;99.90;;;;;;5135541;27;20448;-67
2021/04/11 02:11:15;;;;;;;15.87;14.47;;;11.10;99.90;;;;;;5135252;27;20789;-67
2021/04/11 02:13:42;;;;;;;14.87;14.03;;;11.10;99.90;;;;;;5135095;27;20448;-67
2021/04/11 02:16:13;;;;;;;14.80;14.00;;;11.10;99.90;;;;;;5135200;27;20464;-67
2021/04/11 02:18:40;;;;;;;14.20;13.30;;;11.10;99.90;;;;;;5135156;27;20483;-66
2021/04/11 02:21:12;;;;;;;13.70;12.90;;;11.10;99.90;;;;;;5135284;27;20963;-67
2021/04/11 02:23:38;;;;;;;14.83;13.93;;;11.20;99.90;;;;;;5135301;27;20885;-67
2021/04/11 02:26:07;;;;;;;15.17;14.13;;;11.30;99.90;;;;;;5135038;27;20448;-66
2021/04/11 02:28:33;;;;;;;15.27;14.30;;;11.30;99.90;;;;;;5135403;27;20534;-67
2021/04/11 02:31:16;;;;;;;14.03;13.33;;;11.40;99.90;;;;;;5134809;27;20448;-67
2021/04/11 02:33:54;;;;;;;13.77;13.10;;;11.50;99.90;;;;;;5135232;27;20452;-66
2021/04/11 02:36:22;;;;;;;14.87;14.07;;;11.70;99.90;;;;;;5134917;27;20444;-66
2021/04/11 02:38:52;;;;;;;14.60;13.80;;;11.70;99.90;;;;;;5135062;27;20449;-66
2021/04/11 02:41:20;;;;;;;15.33;14.20;;;11.70;99.90;;;;;;5134605;27;20451;-66
2021/04/11 02:43:46;;;;;;;15.53;14.60;;;11.70;99.90;;;;;;5134938;27;20445;-67
2021/04/11 02:46:13;;;;;;;14.87;13.97;;;11.80;99.90;;;;;;5134870;27;20455;-66
2021/04/11 02:48:40;;;;;;;15.23;14.30;;;11.80;99.90;;;;;;5134780;27;20452;-67
2021/04/11 02:51:07;;;;;;;15.70;14.80;;;11.80;99.90;;;;;;5134740;27;20452;-66
2021/04/11 02:53:37;;;;;;;15.73;14.83;;;11.70;99.90;;;;;;5134538;27;20448;-67
2021/04/11 02:56:03;;;;;;;14.43;13.43;;;11.70;99.90;;;;;;5134319;27;20940;-67
2021/04/11 02:58:30;;;;;;;15.30;14.50;;;11.60;99.90;;;;;;5134562;27;20445;-67
2021/04/11 03:01:00;;;;;;;16.40;15.40;;;11.60;99.90;;;;;;5134672;27;20826;-67
2021/04/11 03:03:27;;;;;;;16.03;15.03;;;11.60;99.90;;;;;;5134816;27;20475;-67
2021/04/11 03:05:54;;;;;;;15.73;14.47;;;11.40;99.90;;;;;;5134377;27;20452;-67
2021/04/11 03:08:26;;;;;;;15.50;14.40;;;11.40;99.90;;;;;;5134108;27;20444;-66
2021/04/11 03:10:58;;;;;;;16.27;15.20;;;11.40;99.90;;;;;;5134385;27;20493;-67
2021/04/11 03:13:27;;;;;;;16.00;14.57;;;11.40;99.90;;;;;;5134469;27;20448;-67
2021/04/11 03:15:56;;;;;;;14.57;13.67;;;11.30;99.90;;;;;;5134630;27;20460;-67
2021/04/11 03:18:24;;;;;;;15.90;14.90;;;11.30;99.90;;;;;;5134595;27;20859;-67
2021/04/11 03:20:51;;;;;;;15.37;14.37;;;11.30;99.90;;;;;;5134161;27;20448;-67
2021/04/11 03:23:19;;;;;;;14.97;14.17;;;11.30;99.90;;;;;;5134253;27;20480;-67
2021/04/11 03:25:47;;;;;;;15.73;14.80;;;11.20;99.90;;;;;;5134065;27;20455;-67
2021/04/11 03:28:19;;;;;;;15.67;14.60;;;11.20;99.90;;;;;;5134135;27;20444;-67
2021/04/11 03:30:51;;;;;;;16.60;15.53;;;11.20;99.90;;;;;;5134049;27;20452;-69
2021/04/11 03:33:20;;;;;;;14.93;14.10;;;11.20;99.90;;;;;;5133915;27;20940;-67
2021/04/11 03:35:48;;;;;;;16.67;15.47;;;11.20;99.90;;;;;;5133841;27;20443;-67
2021/04/11 03:38:18;;;;;;;15.63;14.77;;;11.20;99.90;;;;;;5133659;27;20447;-67
2021/04/11 03:40:49;;;;;;;16.20;14.80;;;11.20;99.90;;;;;;5133739;27;20460;-67
2021/04/11 03:43:19;;;;;;;14.13;13.33;;;11.10;99.90;;;;;;5132640;27;20488;-67
2021/04/11 03:45:45;;;;;;;14.50;13.60;;;11.10;99.90;;;;;;5133866;27;20841;-68
2021/04/11 03:48:19;;;;;;;14.20;13.40;;;11.00;99.90;;;;;;5133501;27;20440;-67
2021/04/11 03:50:51;;;;;;;13.80;13.10;;;11.00;99.90;;;;;;5133783;27;20497;-67
2021/04/11 03:53:20;;;;;;;14.33;13.50;;;10.90;99.90;;;;;;5133373;27;20441;-67
2021/04/11 03:55:49;;;;;;;13.53;12.83;;;10.90;99.90;;;;;;5133103;27;20508;-67
2021/04/11 03:58:21;;;;;;;15.60;14.10;;;10.90;99.90;;;;;;5133466;27;20520;-67
2021/04/11 04:00:51;;;;;;;14.77;13.90;;;10.90;99.90;;;;;;5133380;27;20454;-67
2021/04/11 04:03:21;;;;;;;14.67;13.73;;;10.90;99.90;;;;;;5133051;27;20532;-67
2021/04/11 04:05:48;;;;;;;14.30;13.50;;;10.90;99.90;;;;;;5133471;27;20437;-68
2021/04/11 04:08:15;;;;;;;14.93;14.07;;;10.90;99.90;;;;;;5132878;27;20882;-68
2021/04/11 04:10:49;;;;;;;13.97;13.27;;;11.00;99.90;;;;;;5133129;27;20818;-68
2021/04/11 04:13:33;;;;;;;14.50;13.80;;;11.00;99.90;;;;;;5133055;27;20445;-68
2021/04/11 04:16:10;;;;;;;13.83;13.13;;;11.00;99.90;;;;;;5133038;27;20471;-68
2021/04/11 04:18:49;;;;;;;14.57;13.67;;;11.00;99.90;;;;;;5132873;27;20446;-67
2021/04/11 04:21:39;;;;;;;13.73;12.77;;;11.00;99.90;;;;;;5132947;27;20444;-67
2021/04/11 04:24:20;;;;;;;14.43;13.20;;;11.00;99.90;;;;;;5132743;27;20478;-67
2021/04/11 04:26:53;;;;;;;14.10;13.30;;;11.00;99.90;;;;;;5132773;27;20512;-67
2021/04/11 04:29:33;;;;;;;14.50;13.60;;;11.00;99.90;;;;;;5132525;27;20981;-68
2021/04/11 04:32:22;;;;;;;14.07;13.10;;;11.10;99.90;;;;;;5132645;27;20459;-68
2021/04/11 04:35:04;;;;;;;14.53;13.53;;;11.10;99.90;;;;;;5132673;27;20473;-67
2021/04/11 04:37:39;;;;;;;13.57;12.73;;;11.10;99.90;;;;;;5132543;27;20448;-68
2021/04/11 04:40:10;;;;;;;15.07;14.17;;;11.20;99.90;;;;;;5132495;27;20436;-68
2021/04/11 04:42:43;;;;;;;15.70;14.80;;;11.10;99.90;;;;;;5132747;27;20468;-68
2021/04/11 04:45:15;;;;;;;16.10;15.20;;;11.10;99.90;;;;;;5132687;27;20443;-67
2021/04/11 04:47:49;;;;;;;14.13;13.30;;;11.10;99.90;;;;;;5132665;27;20440;-68
2021/04/11 04:50:20;;;;;;;13.93;13.13;;;11.10;99.90;;;;;;5132457;27;20452;-67
2021/04/11 04:52:55;;;;;;;14.10;13.23;;;11.10;99.90;;;;;;5132467;27;20449;-67
2021/04/11 04:55:25;;;;;;;14.37;13.37;;;11.10;99.90;;;;;;5131992;27;20493;-67
2021/04/11 04:57:55;;;;;;;14.10;13.30;;;11.20;99.90;;;;;;5133022;27;20521;-67
2021/04/11 05:00:25;;;;;;;14.20;13.30;;;11.20;99.90;;;;;;5132070;27;20448;-67
2021/04/11 05:02:58;;;;;;;13.13;12.47;;;11.20;99.90;;;;;;5132503;27;20480;-67
2021/04/11 05:05:26;;;;;;;12.83;12.13;;;11.20;99.90;;;;;;5132377;27;20536;-67
2021/04/11 05:07:59;;;;;;;14.57;13.27;;;11.20;99.90;;;;;;5132231;27;20518;-67
2021/04/11 05:10:31;;;;;;;14.33;13.00;;;11.30;99.90;;;;;;5132450;27;20436;-67
2021/04/11 05:13:02;;;;;;;14.17;13.20;;;11.30;99.90;;;;;;5132416;27;20447;-67
2021/04/11 05:15:35;;;;;;;14.93;14.03;;;11.20;99.90;;;;;;5132098;27;20504;-67
2021/04/11 05:18:06;;;;;;;15.20;14.40;;;11.20;99.90;;;;;;5132176;27;20951;-68
2021/04/11 05:20:35;;;;;;;16.47;15.40;;;11.30;99.90;;;;;;5132105;28;20836;-67
2021/04/11 05:23:12;;;;;;;14.47;13.57;;;11.30;99.90;;;;;;5132130;27;20506;-67
2021/04/11 05:25:44;;;;;;;13.50;12.80;;;11.40;99.90;;;;;;5131955;27;20448;-66
2021/04/11 05:28:14;;;;;;;13.63;12.93;;;11.50;99.90;;;;;;5132582;27;20453;-68
2021/04/11 05:30:46;;;;;;;14.40;13.60;;;11.50;99.90;;;;;;5132193;27;20439;-68
2021/04/11 05:33:19;;;;;;;14.50;13.67;;;11.60;99.90;;;;;;5132441;28;20477;-67
2021/04/11 05:35:47;;;;;;;13.90;13.10;;;11.70;99.90;;;;;;5132052;27;20959;-67
2021/04/11 05:38:20;;;;;;;13.60;12.60;;;11.70;99.90;;;;;;5132006;27;20867;-66
2021/04/11 05:40:53;;;;;;;13.60;12.87;;;11.70;99.90;;;;;;5131899;27;20450;-69
2021/04/11 05:43:25;;;;;;;14.30;13.00;;;11.70;99.90;;;;;;5131908;27;20484;-68
2021/04/11 05:45:57;;;;;;;13.70;12.53;;;11.70;99.90;;;;;;5125268;28;20822;-68
2021/04/11 05:48:31;;;;;;;14.07;13.20;;;11.80;99.90;;;;;;5120456;28;20437;-66
2021/04/11 05:51:01;;;;;;;13.67;12.93;;;11.90;99.90;;;;;;5119069;27;20968;-66
2021/04/11 05:53:31;;;;;;;13.77;12.87;;;12.00;99.90;;;;;;5120035;27;20463;-67
2021/04/11 05:56:00;;;;;;;15.30;14.20;;;11.90;99.90;;;;;;5121374;28;20436;-67
2021/04/11 05:58:36;;;;;;;14.73;13.67;;;11.80;99.90;;;;;;5120278;28;20452;-67
2021/04/11 06:01:06;;;;;;;13.40;12.40;;;11.90;99.90;;;;;;5119589;27;20490;-67
2021/04/11 06:03:36;;;;;;;13.63;12.80;;;11.90;99.90;;;;;;5119150;28;20581;-67
2021/04/11 06:06:10;;;;;;;13.93;13.03;;;12.10;99.90;;;;;;5119419;27;20490;-67
2021/04/11 06:08:42;;;;;;;14.63;13.70;;;12.20;99.90;;;;;;5123443;27;20456;-68
2021/04/11 06:11:17;;;;;;;13.83;12.80;;;12.20;99.90;;;;;;5123817;27;20432;-67
2021/04/11 06:13:47;;;;;;;13.53;12.93;;;12.20;99.90;;;;;;5123739;27;20486;-66
2021/04/11 06:16:16;;;;;;;14.70;13.50;;;12.30;99.90;;;;;;5123428;27;20456;-66
2021/04/11 06:18:44;;;;;;;13.80;13.10;;;12.40;99.90;;;;;;5113642;28;20472;-67
2021/04/11 06:21:17;;;;;;;12.93;12.03;;;12.50;99.90;;;;;;5113585;28;20449;-67
2021/04/11 06:23:49;;;;;;;12.73;12.10;;;12.50;99.90;;;;;;5123161;27;20477;-67
2021/04/11 06:26:29;;;;;;;13.73;12.80;;;12.50;99.90;;;;;;5122311;27;20847;-67
2021/04/11 06:29:02;;;;;;;14.17;13.00;;;12.60;99.90;;;;;;5125230;27;20432;-67
2021/04/11 06:31:33;;;;;;;18.83;13.80;;;12.70;99.90;;;;;;5123953;27;20437;-68
2021/04/11 06:34:04;;;;;;;15.33;14.20;;;12.70;99.90;;;;;;5125684;27;20436;-69
2021/04/11 06:36:36;;;;;;;13.57;12.83;;;12.70;99.90;;;;;;5134177;27;20443;-70
2021/04/11 06:39:08;;;;;;;14.07;13.27;;;12.80;99.90;;;;;;5133989;27;20890;-71
2021/04/11 06:42:03;;;;;;;14.70;13.30;;;12.90;99.90;;;;;;5133936;27;20448;-69
2021/04/11 06:44:45;;;;;;;14.20;13.23;;;13.00;99.90;;;;;;5120132;27;20518;-69
2021/04/11 06:47:48;;;;;;;13.40;12.70;;;13.30;99.90;;;;;;5133849;27;20444;-68
2021/04/11 06:50:33;;;;;;;13.40;12.50;;;13.50;99.90;;;;;;5124127;27;20845;-69
2021/04/11 06:53:35;;;;;;;13.50;12.60;;;13.70;99.90;;;;;;5112173;28;20443;-69
2021/04/11 06:56:29;;;;;;;14.27;13.13;;;13.80;99.90;;;;;;5088605;27;20445;-68
2021/04/11 06:59:05;;;;;;;12.83;12.23;;;14.00;99.90;;;;;;5103948;28;20450;-70
2021/04/11 07:02:00;;;;;;;12.27;11.67;;;14.60;99.90;;;;;;5117506;27;20440;-69
2021/04/11 07:05:06;;;;;;;13.27;12.33;;;15.10;98.20;;;;;;5123298;27;20445;-70
2021/04/11 07:08:23;;;;;;;13.77;12.73;;;15.60;97.00;;;;;;5126752;27;20815;-69
2021/04/11 07:11:18;;;;;;;13.07;12.37;;;15.50;96.80;;;;;;5133554;27;20798;-69
2021/04/11 07:14:19;;;;;;;13.93;13.13;;;15.50;97.40;;;;;;5133913;27;20445;-69
2021/04/11 07:17:01;;;;;;;15.67;14.77;;;15.60;96.80;;;;;;5133483;27;20456;-69
2021/04/11 07:20:02;;;;;;;14.77;13.63;;;15.60;96.60;;;;;;5133558;27;20475;-69
2021/04/11 07:22:52;;;;;;;14.10;13.40;;;15.60;96.80;;;;;;5133557;27;20902;-70
2021/04/11 07:25:50;;;;;;;13.90;12.90;;;16.00;96.50;;;;;;5124266;27;20455;-70
2021/04/11 07:28:26;;;;;;;12.90;12.30;;;16.00;95.70;;;;;;5133069;27;20952;-70
2021/04/11 07:31:01;;;;;;;13.73;12.83;;;16.30;94.90;;;;;;5133036;27;20451;-69
2021/04/11 07:33:55;;;;;;;12.17;11.63;;;16.40;94.40;;;;;;5133191;27;20432;-69
2021/04/11 07:36:47;;;;;;;11.83;11.23;;;16.50;94.00;;;;;;5123139;27;20433;-69
2021/04/11 07:39:32;;;;;;;11.27;10.77;;;16.60;93.10;;;;;;5121968;27;20448;-69
2021/04/11 07:42:21;;;;;;;10.70;10.20;;;16.80;92.20;;;;;;5111170;28;21007;-69
2021/04/11 07:45:03;;;;;;;11.33;10.77;;;17.00;91.40;;;;;;5111141;28;20433;-70
2021/04/11 07:48:06;;;;;;;11.30;10.73;;;17.10;90.90;;;;;;5111979;28;20489;-70
2021/04/11 07:50:46;;;;;;;10.00;9.60;;;17.10;90.40;;;;;;5088987;28;20502;-72
2021/04/11 07:53:39;;;;;;;10.83;10.43;;;17.20;90.00;;;;;;5112227;28;20444;-70
2021/04/11 07:56:18;;;;;;;10.90;10.30;;;17.00;90.30;;;;;;5112133;28;20713;-70
2021/04/11 07:59:11;;;;;;;10.03;9.63;;;17.00;90.50;;;;;;5112169;28;20988;-70
2021/04/11 08:02:09;;;;;;;11.07;10.17;;;17.10;90.20;;;;;;5114700;27;20437;-69
2021/04/11 08:05:18;;;;;;;10.00;9.50;;;17.50;89.80;;;;;;5110805;28;20760;-70
2021/04/11 08:08:13;;;;;;;10.57;10.07;;;18.10;88.20;;;;;;5064752;28;20497;-70
2021/04/11 08:11:03;;;;;;;10.90;10.20;;;19.60;82.40;;;;;;5110750;28;20987;-70
2021/04/11 08:13:55;;;;;;;10.10;9.70;;;20.60;77.90;;;;;;5088165;28;20844;-70
2021/04/11 08:16:48;;;;;;;11.57;11.00;;;21.70;73.90;;;;;;5111631;28;20597;-70
2021/04/11 08:19:49;;;;;;;10.07;9.57;;;21.80;70.70;;;;;;5111837;28;20477;-69
2021/04/11 08:22:37;;;;;;;10.43;10.03;;;21.50;70.40;;;;;;5111916;28;20488;-69
2021/04/11 08:25:15;;;;;;;11.47;10.83;;;20.80;72.00;;;;;;5111413;28;20464;-70
2021/04/11 08:28:27;;;;;;;11.30;10.80;;;20.20;73.40;;;;;;5111824;28;20441;-69
2021/04/11 08:31:22;;;;;;;10.00;9.60;;;20.00;74.40;;;;;;5111021;28;20433;-69
2021/04/11 08:34:23;;;;;;;10.47;10.07;;;20.10;75.10;;;;;;5121341;27;20430;-70
2021/04/11 08:37:11;;;;;;;10.70;10.30;;;20.30;73.70;;;;;;5118505;27;20509;-70
2021/04/11 08:40:04;;;;;;;11.43;10.83;;;20.10;74.30;;;;;;5110075;28;20444;-69
2021/04/11 08:42:43;;;;;;;12.07;11.30;;;20.00;74.50;;;;;;5121429;27;20477;-70
2021/04/11 08:45:20;;;;;;;11.50;10.47;;;20.00;75.10;;;;;;5121164;27;20498;-69
2021/04/11 08:47:56;;;;;;;10.70;10.20;;;20.00;76.00;;;;;;5109984;28;20441;-69
2021/04/11 08:50:31;;;;;;;10.53;9.93;;;19.90;75.60;;;;;;5109805;28;20498;-69
2021/04/11 08:53:07;;;;;;;11.10;10.53;;;19.70;75.70;;;;;;5119235;27;20440;-69
2021/04/11 08:55:40;;;;;;;10.77;10.27;;;19.70;76.00;;;;;;5118650;27;20441;-69
2021/04/11 08:58:14;;;;;;;11.10;10.60;;;20.20;76.20;;;;;;5119664;27;20440;-70
2021/04/11 09:00:47;;;;;;;9.97;9.57;;;20.40;74.30;;;;;;5119586;27;20445;-69
2021/04/11 09:03:35;;;;;;;10.43;10.03;;;20.50;74.10;;;;;;5117752;27;21000;-69
2021/04/11 09:06:08;;;;;;;10.53;10.03;;;20.80;73.70;;;;;;5119618;27;20438;-69
2021/04/11 09:08:38;;;;;;;9.23;8.90;;;20.90;73.60;;;;;;5125480;27;20448;-69
2021/04/11 09:11:20;;;;;;;9.73;9.33;;;20.70;73.30;;;;;;5131285;27;20452;-69
2021/04/11 09:13:55;;;;;;;9.90;9.40;;;20.80;73.00;;;;;;5131534;27;20814;-68
2021/04/11 09:16:30;;;;;;;9.70;9.30;;;20.60;71.50;;;;;;5133977;27;20470;-69
2021/04/11 09:19:21;;;;;;;9.50;9.10;;;20.70;71.30;;;;;;5132733;27;20483;-68
2021/04/11 09:22:02;;;;;;;10.00;9.60;;;20.60;71.70;;;;;;5131030;27;20452;-70
2021/04/11 09:24:34;;;;;;;10.53;10.03;;;20.70;72.40;;;;;;5131184;27;21044;-69
2021/04/11 09:27:31;;;;;;;10.03;9.53;;;20.90;72.70;;;;;;5121113;27;20437;-69
2021/04/11 09:30:05;;;;;;;9.57;9.17;;;21.20;71.10;;;;;;5109101;28;20433;-69
2021/04/11 09:33:03;;;;;;;9.30;8.90;;;21.10;69.90;;;;;;5109609;28;20436;-69
2021/04/11 09:35:36;;;;;;;9.90;9.50;;;20.90;69.10;;;;;;5114276;27;20448;-70
2021/04/11 09:38:48;;;;;;;9.93;9.53;;;21.00;68.70;;;;;;5109238;28;20832;-69
2021/04/11 09:41:41;;;;;;;9.57;9.27;;;21.00;69.10;;;;;;5055124;28;20847;-70
2021/04/11 09:44:21;;;;;;;9.57;9.17;;;21.00;68.10;;;;;;5119511;27;20488;-69
2021/04/11 09:47:09;;;;;;;10.10;9.57;;;20.90;68.20;;;;;;5123520;27;20445;-69
2021/04/11 09:49:52;;;;;;;9.50;9.17;;;21.20;68.00;;;;;;5127741;27;20476;-69
2021/04/11 09:52:55;;;;;;;9.37;8.97;;;21.20;68.60;;;;;;5135090;27;20501;-69
2021/04/11 09:55:25;;;;;;;10.27;9.80;;;21.80;66.50;;;;;;5135181;27;20452;-69
2021/04/11 09:58:19;;;;;;;9.43;9.00;;;22.20;64.40;;;;;;5134680;27;20454;-69
2021/04/11 10:00:53;;;;;;;8.63;8.20;;;22.10;64.40;;;;;;5134970;27;20440;-70
2021/04/11 10:03:37;;;;;;;9.47;9.07;;;22.40;63.50;;;;;;5134757;27;21011;-69
2021/04/11 10:06:18;;;;;;;9.97;9.57;;;22.40;63.50;;;;;;5123109;27;20970;-69
2021/04/11 10:09:10;;;;;;;9.60;9.03;;;22.80;63.00;;;;;;5123754;27;20441;-69
2021/04/11 10:11:53;;;;;;;9.13;8.73;;;23.00;62.10;;;;;;5123296;27;20456;-69
2021/04/11 10:14:33;;;;;;;9.83;8.87;;;23.10;61.50;;;;;;5112663;28;20504;-67
2021/04/11 10:17:09;;;;;;;11.07;10.57;;;23.50;60.60;;;;;;5112634;28;20457;-69
2021/04/11 10:19:46;;;;;;;10.57;10.07;;;23.10;60.10;;;;;;5122246;27;20519;-70
2021/04/11 10:22:35;;;;;;;10.20;9.70;;;22.90;60.60;;;;;;5113704;28;20445;-71
2021/04/11 10:25:23;;;;;;;10.97;10.47;;;23.40;59.70;;;;;;5113782;28;20441;-71
2021/04/11 10:27:58;;;;;;;10.10;9.70;;;24.20;58.30;;;;;;5113836;28;20463;-71
2021/04/11 10:30:25;;;;;;;10.53;10.00;;;25.00;56.80;;;;;;5123384;27;20783;-70
2021/04/11 10:32:57;;;;;;;10.37;9.97;;;25.00;55.80;;;;;;5121480;27;20430;-70
2021/04/11 10:35:29;;;;;;;10.23;9.93;;;24.30;56.10;;;;;;5122163;27;20436;-70
2021/04/11 10:38:01;;;;;;;10.93;10.27;;;24.80;55.50;;;;;;5112127;28;20960;-70
2021/04/11 10:40:51;;;;;;;10.30;9.97;;;25.70;53.60;;;;;;5112292;28;20523;-71
2021/04/11 10:43:31;;;;;;;9.87;9.57;;;25.80;52.90;;;;;;5113350;28;20481;-70
2021/04/11 10:46:03;;;;;;;11.10;10.60;;;25.90;51.90;;;;;;5113398;28;20449;-71
2021/04/11 10:49:02;;;;;;;11.03;10.60;;;25.00;53.00;;;;;;5113603;28;20514;-70
2021/04/11 10:51:48;;;;;;;10.57;10.17;;;25.20;53.00;;;;;;5113704;28;20456;-71
2021/04/11 10:54:43;;;;;;;10.70;10.30;;;25.90;51.60;;;;;;5113097;28;20461;-72
2021/04/11 10:57:35;;;;;;;10.27;9.97;;;26.00;51.40;;;;;;5113178;28;20465;-71
2021/04/11 11:00:11;;;;;;;10.30;9.90;;;26.00;50.30;;;;;;5113140;28;20442;-70
2021/04/11 11:03:15;;;;;;;9.77;9.33;;;25.50;51.00;;;;;;5113098;28;20481;-69
2021/04/11 11:05:54;;;;;;;10.30;9.90;;;24.50;52.30;;;;;;5113027;28;20445;-70
2021/04/11 11:08:57;;;;;;;10.27;9.90;;;24.20;53.70;;;;;;5128793;27;20451;-70
2021/04/11 11:11:52;;;;;;;10.60;10.20;;;24.20;53.10;;;;;;5133466;27;20452;-69
2021/04/11 11:14:45;;;;;;;10.10;9.60;;;24.10;53.20;;;;;;5105269;27;20441;-69
2021/04/11 11:17:35;;;;;;;10.50;10.10;;;23.50;53.20;;;;;;5133133;27;20468;-69
2021/04/11 11:20:16;;;;;;;10.83;10.27;;;22.80;54.90;;;;;;5133021;27;20473;-70
2021/04/11 11:23:17;;;;;;;10.63;10.20;;;22.70;55.50;;;;;;5133064;27;20480;-69
2021/04/11 11:25:56;;;;;;;10.97;10.53;;;22.60;55.40;;;;;;5122551;27;20453;-69
2021/04/11 11:29:00;;;;;;;10.10;9.77;;;22.30;55.90;;;;;;5132739;27;20490;-70
2021/04/11 11:31:40;;;;;;;9.90;9.50;;;22.30;56.20;;;;;;5121688;27;20440;-69
2021/04/11 11:34:29;;;;;;;10.20;9.80;;;22.40;56.30;;;;;;5123622;27;20436;-70
2021/04/11 11:37:08;;;;;;;11.50;11.07;;;22.00;56.90;;;;;;5112232;28;20444;-70
2021/04/11 11:39:42;;;;;;;10.80;10.30;;;22.30;56.60;;;;;;5112132;28;20817;-70
2021/04/11 11:42:23;;;;;;;10.87;10.37;;;22.20;56.50;;;;;;5121090;27;20437;-70
2021/04/11 11:45:01;;;;;;;11.47;10.93;;;22.30;56.70;;;;;;5121328;27;20459;-71
2021/04/11 11:47:35;;;;;;;10.77;10.10;;;22.40;57.00;;;;;;5121264;27;20558;-68
2021/04/11 11:50:08;;;;;;;9.80;9.50;;;22.40;56.60;;;;;;5122829;27;20436;-69
2021/04/11 11:52:42;;;;;;;9.40;9.10;;;22.40;56.80;;;;;;5121723;27;20429;-70
2021/04/11 11:55:18;;;;;;;10.20;9.80;;;22.50;56.80;;;;;;5121263;27;21019;-70
2021/04/11 11:57:51;;;;;;;10.40;9.80;;;23.10;56.40;;;;;;5121168;27;20445;-68
2021/04/11 12:00:21;;;;;;;9.80;9.40;;;23.50;55.30;;;;;;5122136;27;20543;-70
2021/04/11 12:03:03;;;;;;;10.83;10.30;;;23.90;55.40;;;;;;5123244;27;20826;-70
2021/04/11 12:05:38;;;;;;;10.37;9.97;;;25.00;53.80;;;;;;5122250;27;20453;-70
2021/04/11 12:08:13;;;;;;;12.43;11.50;;;25.70;52.30;;;;;;5122732;27;20444;-69
2021/04/11 12:10:44;;;;;;;11.33;10.93;;;26.90;50.90;;;;;;5122144;27;20491;-70
2021/04/11 12:13:20;;;;;;;11.43;10.93;;;28.80;47.70;;;;;;5121048;27;20490;-71
2021/04/11 12:15:55;;;;;;;11.30;10.90;;;30.50;43.50;;;;;;5120637;27;20475;-70
2021/04/11 12:18:25;;;;;;;11.70;11.30;;;30.90;42.00;;;;;;5122698;27;20440;-70
2021/04/11 12:21:01;;;;;;;12.33;11.77;;;29.70;42.30;;;;;;5127273;27;20442;-69
2021/04/11 12:23:31;;;;;;;11.07;10.53;;;29.70;42.50;;;;;;5123438;27;20436;-71
2021/04/11 12:26:07;;;;;;;11.60;11.00;;;28.90;43.30;;;;;;5121680;27;20464;-70
2021/04/11 12:28:34;;;;;;;11.67;11.27;;;28.40;43.90;;;;;;5111087;28;20452;-70
2021/04/11 12:31:14;;;;;;;12.30;11.80;;;28.10;44.70;;;;;;5111105;28;20452;-69
2021/04/11 12:33:50;;;;;;;10.40;10.00;;;28.30;44.60;;;;;;5121873;27;20850;-69
2021/04/11 12:36:23;;;;;;;12.40;11.90;;;27.50;45.20;;;;;;5111003;28;20440;-69
2021/04/11 12:38:52;;;;;;;11.10;10.70;;;27.30;45.20;;;;;;5110597;28;20444;-70
2021/04/11 12:41:23;;;;;;;10.90;10.50;;;26.30;45.90;;;;;;5111058;28;20437;-69
2021/04/11 12:43:57;;;;;;;11.83;11.43;;;26.60;46.20;;;;;;5110702;28;20453;-70
2021/04/11 12:46:30;;;;;;;12.03;11.43;;;26.80;46.10;;;;;;5110737;28;20444;-70
2021/04/11 12:49:05;;;;;;;12.13;11.73;;;26.20;46.50;;;;;;5119506;27;20433;-69
2021/04/11 12:51:38;;;;;;;11.70;11.30;;;26.20;46.70;;;;;;5120289;27;20445;-70
2021/04/11 12:54:12;;;;;;;11.43;10.83;;;25.60;47.30;;;;;;5119828;27;20483;-69
2021/04/11 12:56:41;;;;;;;10.77;10.27;;;24.40;48.70;;;;;;5110710;28;20445;-70
2021/04/11 12:59:14;;;;;;;11.20;10.80;;;23.80;49.90;;;;;;5110602;28;20445;-69
2021/04/11 13:01:44;;;;;;;11.73;11.30;;;23.70;50.50;;;;;;5110733;28;20442;-70
2021/04/11 13:04:18;;;;;;;12.10;11.60;;;24.40;51.60;;;;;;5110497;28;20808;-68
2021/04/11 13:06:53;;;;;;;12.13;11.63;;;24.40;52.20;;;;;;5112987;28;20806;-69
2021/04/11 13:09:47;;;;;;;11.87;11.27;;;23.90;53.40;;;;;;5121853;27;20531;-68
2021/04/11 13:12:22;;;;;;;11.07;10.67;;;23.20;54.30;;;;;;5110801;28;20510;-69
2021/04/11 13:15:01;;;;;;;11.63;11.13;;;22.60;55.80;;;;;;5110520;28;20437;-69
2021/04/11 13:17:36;;;;;;;12.00;11.40;;;22.30;57.20;;;;;;5117018;28;20465;-68